Time;durP1;ratioP1;P1;durP2;ratioP2;P2;SDS_P1;SDS_P2;PMS_P1;PMS_P2;Temp;Humidity;BMP_temperature;BMP_pressure;BME280_temperature;BME280_humidity;BME280_pressure;Samples;Min_cycle;Max_cycle;Signal;HPM_P1;HPM_P2
2023/04/28 00:01:09;;;;;;;;;;;5.00;99.90;;;;;;6107882;23;19951;-66
2023/04/28 00:03:35;;;;;;;;;;;4.70;99.90;;;;;;6105449;23;19909;-66
2023/04/28 00:06:01;;;;;;;;;;;4.60;99.90;;;;;;6111664;23;19909;-66
2023/04/28 00:08:26;;;;;;;;;;;4.50;99.90;;;;;;6110332;23;19917;-66
2023/04/28 00:10:52;;;;;;;;;;;4.50;99.90;;;;;;6112539;23;19908;-66
2023/04/28 00:13:18;;;;;;;;;;;4.50;99.90;;;;;;6110510;23;19909;-66
2023/04/28 00:15:43;;;;;;;;;;;4.60;99.90;;;;;;6084441;23;19908;-65
2023/04/28 00:18:09;;;;;;;;;;;4.60;99.90;;;;;;6111916;23;19916;-63
2023/04/28 00:20:34;;;;;;;;;;;4.60;99.90;;;;;;6111417;23;19912;-63
2023/04/28 00:23:00;;;;;;;;;;;4.60;99.90;;;;;;6109692;23;19919;-63
2023/04/28 00:25:25;;;;;;;;;;;4.50;99.90;;;;;;6112306;23;19924;-62
2023/04/28 00:27:51;;;;;;;;;;;4.50;99.90;;;;;;6109602;23;19971;-63
2023/04/28 00:30:17;;;;;;;;;;;4.50;99.90;;;;;;6108241;23;19909;-65
2023/04/28 00:32:42;;;;;;;;;;;4.60;99.90;;;;;;6110588;23;19943;-63
2023/04/28 00:35:08;;;;;;;;;;;4.60;99.90;;;;;;6109082;23;20323;-63
2023/04/28 00:37:37;;;;;;;;;;;4.60;99.90;;;;;;6112027;23;19916;-63
2023/04/28 00:40:02;;;;;;;;;;;4.50;99.90;;;;;;6110069;23;19905;-63
2023/04/28 00:42:28;;;;;;;;;;;4.60;99.90;;;;;;6108641;23;19988;-63
2023/04/28 00:44:53;;;;;;;;;;;4.60;99.90;;;;;;6109090;23;20439;-63
2023/04/28 00:47:19;;;;;;;;;;;4.60;99.90;;;;;;6108768;23;19988;-63
2023/04/28 00:49:46;;;;;;;;;;;4.60;99.90;;;;;;6107685;23;19915;-63
2023/04/28 00:52:12;;;;;;;;;;;4.60;99.90;;;;;;6105024;23;19911;-63
2023/04/28 00:54:37;;;;;;;;;;;4.60;99.90;;;;;;6109568;23;19908;-63
2023/04/28 00:57:03;;;;;;;;;;;4.60;99.90;;;;;;6109323;23;19909;-66
2023/04/28 00:59:29;;;;;;;;;;;4.60;99.90;;;;;;6109842;23;19909;-65
2023/04/28 01:01:55;;;;;;;;;;;4.50;99.90;;;;;;6103070;23;19992;-65
2023/04/28 01:04:21;;;;;;;;;;;4.60;99.90;;;;;;6108180;23;19923;-65
2023/04/28 01:06:48;;;;;;;;;;;4.70;99.90;;;;;;6109095;23;20652;-65
2023/04/28 01:09:13;;;;;;;;;;;4.70;99.90;;;;;;6108937;23;19932;-65
2023/04/28 01:11:39;;;;;;;;;;;4.70;99.90;;;;;;6109876;23;19929;-65
2023/04/28 01:14:04;;;;;;;;;;;4.70;99.90;;;;;;6110636;23;19936;-65
2023/04/28 01:16:31;;;;;;;;;;;4.60;99.90;;;;;;6108763;23;20733;-65
2023/04/28 01:18:57;;;;;;;;;;;4.50;99.90;;;;;;6110235;23;19944;-65
2023/04/28 01:21:28;;;;;;;;;;;4.50;99.90;;;;;;6109424;23;20392;-65
2023/04/28 01:23:54;;;;;;;;;;;4.40;99.90;;;;;;6111041;23;19909;-65
2023/04/28 01:26:20;;;;;;;;;;;4.30;99.90;;;;;;6109008;23;20508;-65
2023/04/28 01:28:46;;;;;;;;;;;4.30;99.90;;;;;;6109457;23;19975;-65
2023/04/28 01:31:11;;;;;;;;;;;4.30;99.90;;;;;;6107681;23;20641;-65
2023/04/28 01:33:37;;;;;;;;;;;4.30;99.90;;;;;;6108555;23;19992;-65
2023/04/28 01:36:02;;;;;;;;;;;4.20;99.90;;;;;;6109047;23;19916;-65
2023/04/28 01:38:28;;;;;;;;;;;4.20;99.90;;;;;;6106291;23;19935;-65
2023/04/28 01:40:54;;;;;;;;;;;4.20;99.90;;;;;;6109112;23;19905;-65
2023/04/28 01:43:19;;;;;;;;;;;4.10;99.90;;;;;;6107223;23;19924;-66
2023/04/28 01:45:45;;;;;;;;;;;4.10;99.90;;;;;;6083245;23;20313;-65
2023/04/28 01:48:10;;;;;;;;;;;4.10;99.90;;;;;;6108045;23;20532;-66
2023/04/28 01:50:36;;;;;;;;;;;4.10;99.90;;;;;;6109729;23;19925;-65
2023/04/28 01:53:01;;;;;;;;;;;4.10;99.90;;;;;;6108886;23;20040;-65
2023/04/28 01:55:27;;;;;;;;;;;4.10;99.90;;;;;;6109753;23;19913;-65
2023/04/28 01:57:53;;;;;;;;;;;4.10;99.90;;;;;;6109669;23;20007;-65
2023/04/28 02:00:18;;;;;;;;;;;4.10;99.90;;;;;;6109011;23;19915;-65
2023/04/28 02:02:44;;;;;;;;;;;4.20;99.90;;;;;;6110883;23;19909;-65
2023/04/28 02:05:10;;;;;;;;;;;4.10;99.90;;;;;;6111535;23;19916;-66
2023/04/28 02:07:36;;;;;;;;;;;4.00;99.90;;;;;;6110288;23;20557;-65
2023/04/28 02:10:02;;;;;;;;;;;4.00;99.90;;;;;;6109592;23;19983;-65
2023/04/28 02:12:27;;;;;;;;;;;4.00;99.90;;;;;;6112190;23;19904;-65
2023/04/28 02:14:53;;;;;;;;;;;3.90;99.90;;;;;;6111826;23;19905;-63
2023/04/28 02:17:18;;;;;;;;;;;3.90;99.90;;;;;;6112797;23;19917;-64
2023/04/28 02:19:44;;;;;;;;;;;3.90;99.90;;;;;;6110863;23;19967;-64
2023/04/28 02:22:09;;;;;;;;;;;3.80;99.90;;;;;;6112750;23;19944;-63
2023/04/28 02:24:36;;;;;;;;;;;3.80;99.90;;;;;;6084400;23;20514;-63
2023/04/28 02:27:02;;;;;;;;;;;3.80;99.90;;;;;;6109100;23;19924;-64
2023/04/28 02:29:29;;;;;;;;;;;3.80;99.90;;;;;;6110508;23;19908;-63
2023/04/28 02:31:54;;;;;;;;;;;3.80;99.90;;;;;;6112148;23;19987;-64
2023/04/28 02:34:20;;;;;;;;;;;3.80;99.90;;;;;;6109886;23;20102;-64
2023/04/28 02:36:47;;;;;;;;;;;3.80;99.90;;;;;;6112329;23;20335;-63
2023/04/28 02:39:12;;;;;;;;;;;3.80;99.90;;;;;;6111479;23;19967;-64
2023/04/28 02:41:38;;;;;;;;;;;3.80;99.90;;;;;;6107652;23;19996;-63
2023/04/28 02:44:03;;;;;;;;;;;3.80;99.90;;;;;;6105962;23;19924;-63
2023/04/28 02:46:29;;;;;;;;;;;3.80;99.90;;;;;;6109640;23;19909;-64
2023/04/28 02:48:55;;;;;;;;;;;3.80;99.90;;;;;;6110737;23;19909;-64
2023/04/28 02:51:20;;;;;;;;;;;3.80;99.90;;;;;;6111702;23;19915;-65
2023/04/28 02:53:46;;;;;;;;;;;3.70;99.90;;;;;;6110329;23;20012;-66
2023/04/28 02:56:11;;;;;;;;;;;3.70;99.90;;;;;;6113447;23;19909;-66
2023/04/28 02:58:37;;;;;;;;;;;3.70;99.90;;;;;;6110896;23;20261;-65
2023/04/28 03:01:02;;;;;;;;;;;3.70;99.90;;;;;;6111996;23;19916;-66
2023/04/28 03:03:28;;;;;;;;;;;3.70;99.90;;;;;;6112403;23;19905;-65
2023/04/28 03:05:55;;;;;;;;;;;3.70;99.90;;;;;;6112357;23;20275;-65
2023/04/28 03:08:21;;;;;;;;;;;3.70;99.90;;;;;;6112890;23;19917;-65
2023/04/28 03:10:47;;;;;;;;;;;3.70;99.90;;;;;;6111903;23;19956;-64
2023/04/28 03:18:08;;;;;;;;;;;3.60;99.90;;;;;;5009806;28;19931;-61
2023/04/28 03:20:33;;;;;;;;;;;3.60;99.90;;;;;;5025861;28;20551;-61
2023/04/28 03:23:00;;;;;;;;;;;3.50;99.90;;;;;;5043749;28;20033;-61
2023/04/28 03:25:26;;;;;;;;;;;3.50;99.90;;;;;;5049236;28;19970;-61
2023/04/28 03:27:51;;;;;;;;;;;3.40;99.90;;;;;;5045886;28;20012;-61
2023/04/28 03:30:17;;;;;;;;;;;3.40;99.90;;;;;;5036087;28;19917;-62
2023/04/28 03:32:43;;;;;;;;;;;3.40;99.90;;;;;;5040716;28;19920;-61
2023/04/28 03:35:08;;;;;;;;;;;3.40;99.90;;;;;;5043679;28;20377;-61
2023/04/28 03:37:34;;;;;;;;;;;3.40;99.90;;;;;;5047512;28;19974;-61
2023/04/28 03:39:59;;;;;;;;;;;3.50;99.90;;;;;;5041876;28;20601;-61
2023/04/28 03:42:25;;;;;;;;;;;3.50;99.90;;;;;;5045540;28;20365;-61
2023/04/28 03:44:50;;;;;;;;;;;3.50;99.90;;;;;;5046241;28;19917;-61
2023/04/28 03:47:16;;;;;;;;;;;3.60;99.90;;;;;;5039764;28;19928;-61
2023/04/28 03:49:41;;;;;;;;;;;3.50;99.90;;;;;;5036964;28;20392;-61
2023/04/28 03:52:07;;;;;;;;;;;3.40;99.90;;;;;;5042585;28;19937;-62
2023/04/28 03:54:32;;;;;;;;;;;3.40;99.90;;;;;;5045143;28;19920;-62
2023/04/28 03:56:58;;;;;;;;;;;3.50;99.90;;;;;;5042877;28;20395;-62
2023/04/28 03:59:24;;;;;;;;;;;3.50;99.90;;;;;;5047051;28;19975;-62
2023/04/28 04:01:49;;;;;;;;;;;3.60;99.90;;;;;;5048946;28;19913;-62
2023/04/28 04:04:15;;;;;;;;;;;3.60;99.90;;;;;;5046263;28;19914;-62
2023/04/28 04:06:40;;;;;;;;;;;3.50;99.90;;;;;;5050956;28;19959;-62
2023/04/28 04:09:06;;;;;;;;;;;3.50;99.90;;;;;;5035906;28;19916;-62
2023/04/28 04:11:31;;;;;;;;;;;3.50;99.90;;;;;;5047262;28;19913;-62
2023/04/28 04:13:57;;;;;;;;;;;3.60;99.90;;;;;;5045723;28;20685;-62
2023/04/28 04:16:22;;;;;;;;;;;3.70;99.90;;;;;;5046550;28;19931;-62
2023/04/28 04:18:48;;;;;;;;;;;3.80;99.90;;;;;;5047900;28;19921;-62
2023/04/28 04:21:13;;;;;;;;;;;3.90;99.90;;;;;;5034989;28;19924;-62
2023/04/28 04:23:39;;;;;;;;;;;4.00;99.90;;;;;;5050807;28;19917;-62
2023/04/28 04:26:04;;;;;;;;;;;4.00;99.90;;;;;;5047630;28;19916;-62
2023/04/28 04:28:30;;;;;;;;;;;3.90;99.90;;;;;;5039157;28;19921;-62
2023/04/28 04:30:55;;;;;;;;;;;4.00;99.90;;;;;;5032012;28;19917;-62
2023/04/28 04:33:21;;;;;;;;;;;4.00;99.90;;;;;;5031499;28;20285;-62
2023/04/28 04:35:46;;;;;;;;;;;4.10;99.90;;;;;;5027428;28;19925;-62
2023/04/28 04:38:12;;;;;;;;;;;4.20;99.90;;;;;;5032722;28;19916;-61
2023/04/28 04:40:37;;;;;;;;;;;4.30;99.90;;;;;;5031416;28;19960;-62
2023/04/28 04:43:03;;;;;;;;;;;4.40;99.90;;;;;;5026917;28;20365;-61
2023/04/28 04:45:29;;;;;;;;;;;4.50;99.90;;;;;;5028643;28;20647;-61
2023/04/28 04:47:54;;;;;;;;;;;4.70;99.90;;;;;;5025728;28;20401;-61
2023/04/28 04:50:20;;;;;;;;;;;4.80;99.90;;;;;;5023379;28;20012;-61
2023/04/28 04:52:45;;;;;;;;;;;4.90;99.90;;;;;;5021660;28;19963;-62
2023/04/28 04:55:11;;;;;;;;;;;4.90;99.90;;;;;;5027550;28;19921;-62
2023/04/28 04:57:37;;;;;;;;;;;5.00;99.90;;;;;;5035698;28;19976;-61
2023/04/28 05:00:03;;;;;;;;;;;5.00;99.90;;;;;;5029654;28;20040;-62
2023/04/28 05:02:29;;;;;;;;;;;5.10;99.90;;;;;;5029548;28;19986;-62
2023/04/28 05:04:54;;;;;;;;;;;5.20;99.90;;;;;;5031872;28;20048;-61
2023/04/28 05:07:20;;;;;;;;;;;5.30;99.90;;;;;;5027109;28;19962;-61
2023/04/28 05:09:45;;;;;;;;;;;5.50;99.90;;;;;;5016127;28;19928;-61
2023/04/28 05:12:11;;;;;;;;;;;5.60;99.90;;;;;;5020237;28;19928;-62
2023/04/28 05:14:37;;;;;;;;;;;5.70;99.90;;;;;;5018134;28;19916;-61
2023/04/28 05:17:02;;;;;;;;;;;5.70;99.90;;;;;;5012496;28;19929;-61
2023/04/28 05:19:28;;;;;;;;;;;5.80;99.90;;;;;;5019123;28;19924;-62
2023/04/28 05:21:54;;;;;;;;;;;6.00;99.90;;;;;;5014273;28;19923;-62
2023/04/28 05:24:25;;;;;;;;;;;6.20;99.90;;;;;;5011158;28;20412;-66
2023/04/28 05:26:51;;;;;;;;;;;6.40;99.90;;;;;;5021754;28;19925;-66
2023/04/28 05:29:17;;;;;;;;;;;6.60;99.90;;;;;;5027039;28;19960;-65
2023/04/28 05:31:42;;;;;;;;;;;6.70;99.90;;;;;;5022249;28;19917;-65
2023/04/28 05:34:08;;;;;;;;;;;6.90;99.90;;;;;;5015965;28;19927;-69
2023/04/28 05:36:33;;;;;;;;;;;7.10;99.90;;;;;;5024757;28;20303;-71
2023/04/28 05:38:59;;;;;;;;;;;7.20;99.90;;;;;;5022165;28;19943;-65
2023/04/28 05:41:25;;;;;;;;;;;7.50;99.90;;;;;;5020760;28;19982;-62
2023/04/28 05:43:50;;;;;;;;;;;7.60;99.90;;;;;;5027641;28;20039;-65
2023/04/28 05:46:16;;;;;;;;;;;7.80;99.90;;;;;;5027437;28;19913;-65
2023/04/28 05:48:42;;;;;;;;;;;8.00;99.90;;;;;;5031282;28;19924;-65
2023/04/28 05:51:07;;;;;;;;;;;8.20;99.90;;;;;;5027191;28;19924;-65
2023/04/28 05:53:33;;;;;;;;;;;8.50;99.90;;;;;;5036067;28;19924;-65
2023/04/28 05:55:58;;;;;;;;;;;8.70;99.90;;;;;;5033742;28;20332;-65
2023/04/28 05:58:24;;;;;;;;;;;9.00;99.90;;;;;;5024000;28;20363;-65
2023/04/28 06:00:49;;;;;;;;;;;9.20;99.90;;;;;;5027802;28;19920;-65
2023/04/28 06:03:17;;;;;;;;;;;9.40;99.90;;;;;;5030713;28;19909;-65
2023/04/28 06:05:43;;;;;;;;;;;9.50;99.90;;;;;;5034924;28;19921;-65
2023/04/28 06:08:09;;;;;;;;;;;9.70;99.90;;;;;;5030833;28;19974;-65
2023/04/28 06:10:34;;;;;;;;;;;9.80;99.90;;;;;;5032725;28;19995;-65
2023/04/28 06:13:01;;;;;;;;;;;9.90;99.90;;;;;;5033644;28;19917;-65
2023/04/28 06:15:26;;;;;;;;;;;9.90;99.90;;;;;;5033104;28;21571;-65
2023/04/28 06:17:52;;;;;;;;;;;10.00;99.90;;;;;;5034309;28;19939;-65
2023/04/28 06:20:19;;;;;;;;;;;10.00;99.90;;;;;;5032192;28;19921;-65
2023/04/28 06:22:45;;;;;;;;;;;10.20;99.90;;;;;;5023498;28;19913;-65
2023/04/28 06:25:10;;;;;;;;;;;10.30;99.90;;;;;;5035978;28;19935;-65
2023/04/28 06:27:36;;;;;;;;;;;10.40;99.90;;;;;;5032799;28;19971;-65
2023/04/28 06:30:01;;;;;;;;;;;10.50;99.90;;;;;;5032121;28;20040;-65
2023/04/28 06:32:27;;;;;;;;;;;10.50;99.90;;;;;;5021473;28;19929;-65
2023/04/28 06:34:52;;;;;;;;;;;10.60;99.90;;;;;;5031686;28;19947;-65
2023/04/28 06:37:18;;;;;;;;;;;10.60;99.90;;;;;;5030397;28;20524;-65
2023/04/28 06:39:43;;;;;;;;;;;10.60;99.90;;;;;;5027680;28;20003;-65
2023/04/28 06:42:09;;;;;;;;;;;10.50;99.90;;;;;;5030444;28;20105;-62
2023/04/28 06:44:35;;;;;;;;;;;10.40;99.90;;;;;;5036186;28;20289;-62
2023/04/28 06:47:00;;;;;;;;;;;10.40;99.90;;;;;;5030163;28;19957;-62
2023/04/28 06:49:26;;;;;;;;;;;10.40;99.90;;;;;;5030779;28;19912;-63
2023/04/28 06:51:51;;;;;;;;;;;10.50;99.90;;;;;;5025746;28;19916;-63
2023/04/28 06:54:17;;;;;;;;;;;10.50;99.90;;;;;;5023650;28;19925;-62
2023/04/28 06:56:42;;;;;;;;;;;10.60;99.90;;;;;;5031144;28;20659;-62
2023/04/28 06:59:08;;;;;;;;;;;10.60;99.90;;;;;;5027837;28;19913;-62
2023/04/28 07:01:33;;;;;;;;;;;10.70;99.90;;;;;;5029645;28;19913;-62
2023/04/28 07:03:59;;;;;;;;;;;10.80;99.90;;;;;;5019707;28;19923;-62
2023/04/28 07:06:26;;;;;;;;;;;10.90;99.90;;;;;;5028337;28;19977;-62
2023/04/28 07:08:52;;;;;;;;;;;11.10;99.90;;;;;;5031347;28;20379;-62
2023/04/28 07:11:17;;;;;;;;;;;11.20;99.90;;;;;;5031155;28;19917;-62
2023/04/28 07:13:45;;;;;;;;;;;11.40;99.90;;;;;;5030319;28;20018;-62
2023/04/28 07:16:10;;;;;;;;;;;11.50;99.90;;;;;;5031727;28;20028;-62
2023/04/28 07:18:36;;;;;;;;;;;11.60;99.90;;;;;;5027131;28;19920;-62
2023/04/28 07:21:01;;;;;;;;;;;11.80;99.90;;;;;;5021931;28;20561;-62
2023/04/28 07:23:27;;;;;;;;;;;12.00;99.90;;;;;;5032642;28;19917;-62
2023/04/28 07:25:53;;;;;;;;;;;12.10;99.90;;;;;;5034090;28;19913;-63
2023/04/28 07:28:19;;;;;;;;;;;12.40;99.60;;;;;;5028618;28;19913;-62
2023/04/28 07:30:44;;;;;;;;;;;12.30;99.80;;;;;;5024603;28;20016;-62
2023/04/28 07:33:10;;;;;;;;;;;12.50;99.80;;;;;;5029635;28;20261;-62
2023/04/28 07:35:35;;;;;;;;;;;12.70;99.90;;;;;;5034898;28;19920;-61
2023/04/28 07:38:01;;;;;;;;;;;12.80;99.40;;;;;;5026697;28;19921;-64
2023/04/28 07:40:26;;;;;;;;;;;12.70;99.30;;;;;;5028496;28;19944;-65
2023/04/28 07:42:53;;;;;;;;;;;12.60;99.90;;;;;;5014549;28;19967;-65
2023/04/28 07:45:18;;;;;;;;;;;12.60;99.90;;;;;;5024981;28;19917;-65
2023/04/28 07:47:44;;;;;;;;;;;12.70;98.60;;;;;;5032419;28;20557;-65
2023/04/28 07:50:10;;;;;;;;;;;12.80;97.40;;;;;;5025084;28;19990;-65
2023/04/28 07:52:36;;;;;;;;;;;13.00;97.70;;;;;;5024021;28;19917;-65
2023/04/28 07:55:03;;;;;;;;;;;12.90;98.00;;;;;;5032528;28;19920;-62
2023/04/28 07:57:29;;;;;;;;;;;12.90;99.20;;;;;;5015236;28;19935;-62
2023/04/28 07:59:54;;;;;;;;;;;13.00;98.70;;;;;;5025879;28;19975;-62
2023/04/28 08:02:20;;;;;;;;;;;13.10;97.30;;;;;;5030212;28;20344;-62
2023/04/28 08:04:46;;;;;;;;;;;13.20;97.00;;;;;;5034091;28;19935;-61
2023/04/28 08:07:12;;;;;;;;;;;13.20;97.60;;;;;;5027754;28;19932;-61
2023/04/28 08:09:39;;;;;;;;;;;13.20;97.90;;;;;;5031896;28;19917;-62
2023/04/28 08:12:05;;;;;;;;;;;13.20;96.60;;;;;;5023622;28;19923;-61
2023/04/28 08:14:30;;;;;;;;;;;13.20;96.80;;;;;;5030339;28;19925;-61
2023/04/28 08:16:56;;;;;;;;;;;13.20;97.50;;;;;;5026239;28;20578;-64
2023/04/28 08:19:21;;;;;;;;;;;13.40;97.70;;;;;;5027463;28;20281;-64
2023/04/28 08:21:47;;;;;;;;;;;13.40;95.80;;;;;;5028980;28;19968;-64
2023/04/28 08:24:12;;;;;;;;;;;13.40;95.10;;;;;;5027433;28;20377;-64
2023/04/28 08:26:38;;;;;;;;;;;13.50;94.70;;;;;;5034214;28;20074;-64
2023/04/28 08:29:04;;;;;;;;;;;13.50;94.50;;;;;;5019220;28;20116;-64
2023/04/28 08:31:29;;;;;;;;;;;13.50;94.60;;;;;;5030383;28;19928;-64
2023/04/28 08:33:55;;;;;;;;;;;13.60;94.50;;;;;;5032369;28;20004;-62
2023/04/28 08:36:22;;;;;;;;;;;13.80;92.40;;;;;;5033702;28;20888;-62
2023/04/28 08:38:47;;;;;;;;;;;13.80;91.40;;;;;;5026734;28;20119;-62
2023/04/28 08:41:16;;;;;;;;;;;13.80;91.00;;;;;;5033216;28;20454;-62
2023/04/28 08:43:42;;;;;;;;;;;13.80;91.60;;;;;;5025141;28;19928;-62
2023/04/28 08:46:08;;;;;;;;;;;13.90;91.70;;;;;;5027134;28;19921;-62
2023/04/28 08:48:38;;;;;;;;;;;14.00;91.90;;;;;;5036617;28;19921;-62
2023/04/28 08:51:05;;;;;;;;;;;14.10;88.70;;;;;;5036825;28;19921;-62
2023/04/28 08:53:31;;;;;;;;;;;14.00;87.40;;;;;;5029049;28;19921;-62
2023/04/28 08:55:57;;;;;;;;;;;14.00;86.20;;;;;;5031591;28;20435;-62
2023/04/28 08:58:23;;;;;;;;;;;14.20;87.10;;;;;;5038468;28;19967;-62
2023/04/28 09:00:49;;;;;;;;;;;14.40;91.30;;;;;;5032789;28;19971;-61
2023/04/28 09:03:15;;;;;;;;;;;14.60;84.70;;;;;;5034785;28;19913;-61
2023/04/28 09:05:40;;;;;;;;;;;14.70;81.30;;;;;;5035029;28;19921;-61
2023/04/28 09:08:06;;;;;;;;;;;14.80;78.70;;;;;;5032034;28;20278;-61
2023/04/28 09:10:31;;;;;;;;;;;14.80;75.50;;;;;;5040266;28;20360;-62
2023/04/28 09:12:57;;;;;;;;;;;14.80;71.40;;;;;;5031971;28;19917;-62
2023/04/28 09:15:30;;;;;;;;;;;14.80;73.40;;;;;;5020590;28;19921;-62
2023/04/28 09:17:56;;;;;;;;;;;14.80;67.70;;;;;;5034450;28;19924;-61
2023/04/28 09:20:22;;;;;;;;;;;14.70;70.80;;;;;;5033866;28;19920;-62
2023/04/28 09:22:48;;;;;;;;;;;14.80;69.50;;;;;;5027796;28;20270;-62
2023/04/28 09:25:15;;;;;;;;;;;14.80;68.80;;;;;;5028716;28;20429;-62
2023/04/28 09:27:40;;;;;;;;;;;14.90;67.90;;;;;;5027404;28;19974;-62
2023/04/28 09:30:06;;;;;;;;;;;14.90;67.10;;;;;;5036266;28;19916;-62
2023/04/28 09:32:31;;;;;;;;;;;15.00;65.60;;;;;;5029454;28;20007;-62
2023/04/28 09:34:58;;;;;;;;;;;14.90;65.40;;;;;;5030010;28;20453;-62
2023/04/28 09:37:25;;;;;;;;;;;15.00;66.40;;;;;;5023288;28;19952;-62
2023/04/28 09:39:52;;;;;;;;;;;15.00;64.00;;;;;;5031049;28;19920;-62
2023/04/28 09:42:31;;;;;;;;;;;14.90;62.70;;;;;;5030311;28;20327;-62
2023/04/28 09:44:57;;;;;;;;;;;14.90;63.90;;;;;;5035238;28;20369;-62
2023/04/28 09:47:23;;;;;;;;;;;14.90;63.10;;;;;;5032746;28;19975;-62
2023/04/28 09:49:55;;;;;;;;;;;14.90;63.80;;;;;;5029710;28;19916;-62
2023/04/28 09:52:22;;;;;;;;;;;14.90;64.50;;;;;;5030443;28;19921;-64
2023/04/28 09:54:52;;;;;;;;;;;14.90;66.20;;;;;;5036742;28;19928;-64
2023/04/28 09:57:18;;;;;;;;;;;14.90;66.30;;;;;;5036116;28;19917;-64
2023/04/28 09:59:48;;;;;;;;;;;15.00;64.40;;;;;;5026713;28;19944;-64
2023/04/28 10:02:14;;;;;;;;;;;14.90;64.70;;;;;;5033974;28;20222;-65
2023/04/28 10:04:41;;;;;;;;;;;14.90;65.50;;;;;;5033824;28;19924;-64
2023/04/28 10:07:07;;;;;;;;;;;15.00;64.30;;;;;;5034984;28;20014;-64
2023/04/28 10:09:34;;;;;;;;;;;15.10;64.80;;;;;;5037570;28;19909;-64
2023/04/28 10:12:00;;;;;;;;;;;15.20;65.10;;;;;;5033304;28;20003;-62
2023/04/28 10:14:26;;;;;;;;;;;15.30;64.20;;;;;;5031337;28;19917;-62
2023/04/28 10:16:53;;;;;;;;;;;15.20;61.60;;;;;;5031870;28;19924;-62
2023/04/28 10:19:19;;;;;;;;;;;15.20;62.40;;;;;;5034972;28;20446;-62
2023/04/28 10:21:51;;;;;;;;;;;15.20;62.50;;;;;;5034179;28;19921;-61
2023/04/28 10:24:28;;;;;;;;;;;15.20;62.20;;;;;;5031479;28;19917;-61
2023/04/28 10:26:54;;;;;;;;;;;15.10;61.10;;;;;;5036083;28;19936;-62
2023/04/28 10:29:24;;;;;;;;;;;15.10;63.50;;;;;;5027509;28;19913;-64
2023/04/28 10:32:08;;;;;;;;;;;15.10;64.80;;;;;;5031290;28;20325;-64
2023/04/28 10:34:34;;;;;;;;;;;15.10;62.50;;;;;;5032958;28;19917;-65
2023/04/28 10:37:01;;;;;;;;;;;15.00;59.00;;;;;;5022332;28;19924;-64
2023/04/28 10:39:26;;;;;;;;;;;15.00;65.40;;;;;;5030735;28;19986;-64
2023/04/28 10:41:52;;;;;;;;;;;15.20;67.90;;;;;;5032467;28;20361;-64
2023/04/28 10:44:27;;;;;;;;;;;15.40;66.30;;;;;;5030040;28;19917;-64
2023/04/28 10:47:00;;;;;;;;;;;15.50;63.80;;;;;;5038893;28;19924;-65
2023/04/28 10:49:45;;;;;;;;;;;15.40;65.40;;;;;;5025766;28;19914;-62
2023/04/28 10:52:29;;;;;;;;;;;15.50;65.20;;;;;;5032752;28;19962;-62
2023/04/28 10:55:13;;;;;;;;;;;15.50;65.90;;;;;;5035248;28;19916;-62
2023/04/28 10:57:38;;;;;;;;;;;15.40;64.80;;;;;;5033012;28;20008;-62
2023/04/28 11:00:33;;;;;;;;;;;15.30;65.60;;;;;;5051658;28;19992;-62
2023/04/28 11:02:59;;;;;;;;;;;15.30;65.30;;;;;;5023921;28;19917;-62
2023/04/28 11:05:27;;;;;;;;;;;15.30;64.80;;;;;;5024655;28;19932;-62
2023/04/28 11:08:11;;;;;;;;;;;15.30;65.30;;;;;;5031835;28;19967;-64
2023/04/28 11:10:55;;;;;;;;;;;15.30;65.30;;;;;;5029230;28;20008;-64
2023/04/28 11:13:25;;;;;;;;;;;15.30;65.70;;;;;;5025363;28;20227;-64
2023/04/28 11:16:03;;;;;;;;;;;15.40;64.40;;;;;;5027359;28;19964;-64
2023/04/28 11:18:29;;;;;;;;;;;15.50;66.20;;;;;;5025761;28;19925;-66
2023/04/28 11:20:56;;;;;;;;;;;15.60;67.50;;;;;;5032891;28;19924;-65
2023/04/28 11:23:23;;;;;;;;;;;15.60;64.80;;;;;;5035484;28;20456;-65
2023/04/28 11:25:55;;;;;;;;;;;15.60;65.30;;;;;;5029722;28;20555;-63
2023/04/28 11:28:21;;;;;;;;;;;15.60;65.60;;;;;;5028569;28;20463;-63
2023/04/28 11:30:46;;;;;;;;;;;15.80;65.30;;;;;;5022473;28;20855;-62
2023/04/28 11:33:12;;;;;;;;;;;15.80;63.40;;;;;;5034098;28;20598;-62
2023/04/28 11:35:41;;;;;;;;;;;15.70;64.90;;;;;;5030791;28;19948;-62
2023/04/28 11:38:06;;;;;;;;;;;15.80;65.90;;;;;;5032810;28;19982;-63
2023/04/28 11:40:32;;;;;;;;;;;16.00;64.20;;;;;;5035486;28;20507;-63
2023/04/28 11:42:58;;;;;;;;;;;16.00;62.30;;;;;;5034146;28;20380;-63
2023/04/28 11:45:26;;;;;;;;;;;15.90;61.80;;;;;;5038151;28;19921;-65
2023/04/28 11:47:52;;;;;;;;;;;15.90;63.50;;;;;;5032014;28;19936;-65
2023/04/28 11:50:34;;;;;;;;;;;16.00;61.50;;;;;;5029667;28;19916;-65
2023/04/28 11:53:00;;;;;;;;;;;16.00;60.60;;;;;;5037751;28;19952;-65
2023/04/28 11:55:27;;;;;;;;;;;16.10;62.20;;;;;;5035123;28;20408;-65
2023/04/28 11:58:12;;;;;;;;;;;16.20;63.30;;;;;;5030915;28;19916;-65
2023/04/28 12:00:37;;;;;;;;;;;16.20;62.20;;;;;;5027402;28;19925;-65
2023/04/28 12:03:07;;;;;;;;;;;16.20;60.50;;;;;;5031330;28;19924;-65
2023/04/28 12:05:34;;;;;;;;;;;16.10;59.80;;;;;;5023666;28;19924;-63
2023/04/28 12:08:00;;;;;;;;;;;16.00;59.30;;;;;;5026248;28;19920;-63
2023/04/28 12:10:25;;;;;;;;;;;16.00;59.90;;;;;;5035551;28;19916;-62
2023/04/28 12:12:51;;;;;;;;;;;16.10;59.70;;;;;;5034770;28;19921;-63
2023/04/28 12:15:16;;;;;;;;;;;16.20;58.90;;;;;;5032366;28;19925;-63
2023/04/28 12:17:42;;;;;;;;;;;16.10;59.30;;;;;;5035832;28;19942;-63
2023/04/28 12:20:11;;;;;;;;;;;16.10;59.00;;;;;;5038172;28;20862;-63
2023/04/28 12:22:45;;;;;;;;;;;16.00;59.50;;;;;;5035737;28;20416;-65
2023/04/28 12:25:11;;;;;;;;;;;16.00;60.30;;;;;;5034311;28;20340;-65
2023/04/28 12:27:39;;;;;;;;;;;16.10;59.90;;;;;;5033847;28;20032;-66
2023/04/28 12:30:19;;;;;;;;;;;16.00;59.40;;;;;;5028564;28;19921;-65
2023/04/28 12:32:45;;;;;;;;;;;16.00;60.50;;;;;;5030712;28;19995;-65
2023/04/28 12:35:10;;;;;;;;;;;15.90;59.50;;;;;;5032509;28;19920;-65
2023/04/28 12:37:40;;;;;;;;;;;15.90;60.20;;;;;;5031019;28;19925;-65
2023/04/28 12:40:06;;;;;;;;;;;16.00;61.00;;;;;;5027032;28;20921;-65
2023/04/28 12:42:31;;;;;;;;;;;16.10;60.20;;;;;;5032709;28;19928;-65
2023/04/28 12:44:57;;;;;;;;;;;16.10;62.30;;;;;;5037124;28;19913;-65
2023/04/28 12:47:23;;;;;;;;;;;16.10;61.20;;;;;;5030271;28;20531;-65
2023/04/28 12:49:51;;;;;;;;;;;16.20;59.60;;;;;;5034724;28;19982;-65
2023/04/28 12:52:18;;;;;;;;;;;16.30;59.50;;;;;;5028494;28;19921;-65
2023/04/28 12:54:45;;;;;;;;;;;16.20;59.70;;;;;;5032846;28;20318;-65
2023/04/28 12:57:12;;;;;;;;;;;16.20;59.10;;;;;;5037656;28;20383;-65
2023/04/28 12:59:38;;;;;;;;;;;16.20;59.70;;;;;;5023064;28;20028;-65
2023/04/28 13:02:03;;;;;;;;;;;16.20;58.90;;;;;;5035357;28;20946;-65
2023/04/28 13:04:30;;;;;;;;;;;16.30;59.70;;;;;;5029769;28;20438;-65
2023/04/28 13:06:57;;;;;;;;;;;16.30;59.00;;;;;;5031299;28;19925;-65
2023/04/28 13:09:23;;;;;;;;;;;16.20;60.30;;;;;;5032557;28;19916;-65
2023/04/28 13:11:49;;;;;;;;;;;16.20;60.50;;;;;;5031020;28;19917;-65
2023/04/28 13:14:15;;;;;;;;;;;16.20;60.70;;;;;;5026966;28;19921;-65
2023/04/28 13:16:40;;;;;;;;;;;16.30;61.20;;;;;;5030655;28;19925;-65
2023/04/28 13:19:12;;;;;;;;;;;16.20;62.40;;;;;;5025020;28;19921;-63
2023/04/28 13:21:41;;;;;;;;;;;16.20;60.40;;;;;;5035669;28;19917;-63
2023/04/28 13:24:07;;;;;;;;;;;16.20;59.70;;;;;;5034421;28;20008;-62
2023/04/28 13:26:33;;;;;;;;;;;16.20;63.00;;;;;;5032474;28;20292;-63
2023/04/28 13:28:59;;;;;;;;;;;16.30;60.90;;;;;;5031551;28;19975;-63
2023/04/28 13:31:25;;;;;;;;;;;16.20;59.90;;;;;;5033502;28;19956;-63
2023/04/28 13:33:51;;;;;;;;;;;16.20;59.80;;;;;;5034072;28;20007;-63
2023/04/28 13:36:17;;;;;;;;;;;16.10;60.50;;;;;;5034613;28;19917;-63
2023/04/28 13:38:47;;;;;;;;;;;16.20;60.00;;;;;;5028572;28;20441;-65
2023/04/28 13:41:13;;;;;;;;;;;16.20;60.60;;;;;;5040093;28;19913;-65
2023/04/28 13:43:39;;;;;;;;;;;16.20;61.20;;;;;;5033772;28;19916;-66
2023/04/28 13:46:07;;;;;;;;;;;16.20;60.00;;;;;;5023461;28;19928;-65
2023/04/28 13:48:34;;;;;;;;;;;16.30;60.80;;;;;;5033389;28;20054;-65
2023/04/28 13:50:59;;;;;;;;;;;16.30;60.70;;;;;;5030913;28;19912;-65
2023/04/28 13:53:25;;;;;;;;;;;16.40;61.50;;;;;;5033588;28;20615;-65
2023/04/28 13:55:52;;;;;;;;;;;16.30;59.90;;;;;;5031611;28;20576;-65
2023/04/28 13:58:18;;;;;;;;;;;16.10;60.30;;;;;;5028085;28;19917;-65
2023/04/28 14:00:44;;;;;;;;;;;16.10;61.10;;;;;;5024027;28;19924;-64
2023/04/28 14:03:10;;;;;;;;;;;16.00;60.60;;;;;;5028666;28;19931;-65
2023/04/28 14:05:35;;;;;;;;;;;15.90;61.40;;;;;;5018640;28;20007;-65
2023/04/28 14:08:02;;;;;;;;;;;16.00;62.20;;;;;;5012686;28;19935;-65
2023/04/28 14:10:29;;;;;;;;;;;16.00;62.90;;;;;;5029616;28;19917;-66
2023/04/28 14:12:55;;;;;;;;;;;16.00;63.30;;;;;;5027732;28;19925;-65
2023/04/28 14:15:20;;;;;;;;;;;16.00;62.20;;;;;;5019289;28;19921;-65
2023/04/28 14:17:47;;;;;;;;;;;16.10;62.40;;;;;;5020191;28;19931;-63
2023/04/28 14:20:13;;;;;;;;;;;16.10;62.40;;;;;;5025812;28;19917;-63
2023/04/28 14:22:39;;;;;;;;;;;16.10;62.80;;;;;;5011960;28;20015;-63
2023/04/28 14:25:05;;;;;;;;;;;16.10;62.70;;;;;;5027883;28;19970;-63